Terminal Aerodrome Forecast
Issued by NWS

Home | Current Version | Previous Version | Graphics & Text | Print | Product List | Glossary Off
Versions: 1 2 3 4 5 6 7 8 9 10 11 12 13 14

000
FTUS43 KMPX 162339
TAFAXN
TAF
KAXN 162339Z 1700/1724 VRB03KT P6SM SCT020 BKN100
     FM170400 VRB02KT 4SM BR SCT100 BKN250
      TEMPO 1710/1714 1SM BR BKN004
     FM171600 28005KT P6SM SCT150=

USA.gov is the U.S. government's official web portal to all federal, state and local government web resources and services.